Arctic Fury — WDE9335 — position and weather

sailwx.info

Track history (hours):
 
Tides and Currents Weather Stations Pressure Air Temp Water Temp Dewpoint Dewpoint Depression Visibility Wind Speed Wind Dir Waves Ship Positions

Arctic Fury

More information available from US FCC via Universal Licensing System and Coast Guard Vessel Documentation Center.

Last reported at 2014-Aug-20 05:18 UTC. Time now 2014-Aug-29 18:20 UTC.
Position N 46°19' W 124°16'.
Warning: this ship's position is 9 days out of date.

Length 43 m; draft 5 m.

Type: Fishing. MMSI: 366468000.

Date/timePositionNaut miles runAvg speedWind from/ knotsBaromVisibWave heightAir tempDewpointWater temp
2014-Aug-20 05:18N 46°19' W 124°16'66 1.5
2014-Aug-18 10:23N 45°13' W 124°33'8 9.1
2014-Aug-18 09:33N 45°21' W 124°33'9 9.2
2014-Aug-18 08:33N 45°30' W 124°34'71 8.5
2014-Aug-18 00:10N 46°41' W 124°32'10 0.7
2014-Aug-17 10:19N 46°44' W 124°18'6 8.4
2014-Aug-17 09:33N 46°37' W 124°19'8 7.8
2014-Aug-17 08:32N 46°29' W 124°20'7 7.6
2014-Aug-17 07:33N 46°22' W 124°20'8 7.7
2014-Aug-17 06:32N 46°14' W 124°21'7 7.2
2014-Aug-17 05:32N 46°07' W 124°22'32 0.7
2014-Aug-15 06:33N 46°39' W 124°16'9 8.7
2014-Aug-15 05:33N 46°30' W 124°18'9 8.9
2014-Aug-15 04:33N 46°22' W 124°20'43 8.6
2014-Aug-14 23:32N 45°39' W 124°28'8 8.7
2014-Aug-14 22:33N 45°30' W 124°29'9 0.3
2014-Aug-13 10:33N 45°24' W 124°19'9 8.9
2014-Aug-13 09:33N 45°33' W 124°19'9 8.6
2014-Aug-13 08:33N 45°42' W 124°18'9 8.6
2014-Aug-13 07:33N 45°50' W 124°18'8 8.3
2014-Aug-13 06:33N 45°59' W 124°18'8 8.4
2014-Aug-13 05:33N 46°07' W 124°18'9 8.7
2014-Aug-13 04:33N 46°16' W 124°17'9 9.2
2014-Aug-13 03:34N 46°25' W 124°17'9 9.3
2014-Aug-13 02:33N 46°34' W 124°17'9 9.1
2014-Aug-13 01:33N 46°43' W 124°16'9 9.2
2014-Aug-13 00:33N 46°52' W 124°15'12 0.9
2014-Aug-12 12:20N 46°41' W 124°16'7 8.8
2014-Aug-12 11:33N 46°34' W 124°17'9 8.6
2014-Aug-12 10:30N 46°25' W 124°19'8 8.5
2014-Aug-12 09:33N 46°17' W 124°20'23 0.8
2014-Aug-11 03:06N 45°56' W 124°34'21 8.4
2014-Aug-11 00:33N 46°18' W 124°34'9 9.3
2014-Aug-10 23:33N 46°27' W 124°34'10 9.4
2014-Aug-10 22:30N 46°36' W 124°31'1010.3
2014-Aug-10 21:32N 46°45' W 124°24'15 2.3
2014-Aug-10 15:06N 46°54' W 124°06'  
Track history (hours):
 
Tides and Currents Weather Stations Pressure Air Temp Water Temp Dewpoint Dewpoint Depression Visibility Wind Speed Wind Dir Waves Ship Positions

Arctic Fury

More information available from US FCC via Universal Licensing System and Coast Guard Vessel Documentation Center.

Last reported at 2014-Aug-20 05:18 UTC. Time now 2014-Aug-29 18:20 UTC.
Position N 46°19' W 124°16'.
Warning: this ship's position is 9 days out of date.

Length 43 m; draft 5 m.

Type: Fishing. MMSI: 366468000.

Date/timePositionNaut miles runAvg speedWind from/ knotsBaromVisibWave heightAir tempDewpointWater temp
2014-Aug-20 05:18N 46°19' W 124°16'66 1.5
2014-Aug-18 10:23N 45°13' W 124°33'8 9.1
2014-Aug-18 09:33N 45°21' W 124°33'9 9.2
2014-Aug-18 08:33N 45°30' W 124°34'71 8.5
2014-Aug-18 00:10N 46°41' W 124°32'10 0.7
2014-Aug-17 10:19N 46°44' W 124°18'6 8.4
2014-Aug-17 09:33N 46°37' W 124°19'8 7.8
2014-Aug-17 08:32N 46°29' W 124°20'7 7.6
2014-Aug-17 07:33N 46°22' W 124°20'8 7.7
2014-Aug-17 06:32N 46°14' W 124°21'7 7.2
2014-Aug-17 05:32N 46°07' W 124°22'32 0.7
2014-Aug-15 06:33N 46°39' W 124°16'9 8.7
2014-Aug-15 05:33N 46°30' W 124°18'9 8.9
2014-Aug-15 04:33N 46°22' W 124°20'43 8.6
2014-Aug-14 23:32N 45°39' W 124°28'8 8.7
2014-Aug-14 22:33N 45°30' W 124°29'9 0.3
2014-Aug-13 10:33N 45°24' W 124°19'9 8.9
2014-Aug-13 09:33N 45°33' W 124°19'9 8.6
2014-Aug-13 08:33N 45°42' W 124°18'9 8.6
2014-Aug-13 07:33N 45°50' W 124°18'8 8.3
2014-Aug-13 06:33N 45°59' W 124°18'8 8.4
2014-Aug-13 05:33N 46°07' W 124°18'9 8.7
2014-Aug-13 04:33N 46°16' W 124°17'9 9.2
2014-Aug-13 03:34N 46°25' W 124°17'9 9.3
2014-Aug-13 02:33N 46°34' W 124°17'9 9.1
2014-Aug-13 01:33N 46°43' W 124°16'9 9.2
2014-Aug-13 00:33N 46°52' W 124°15'12 0.9
2014-Aug-12 12:20N 46°41' W 124°16'7 8.8
2014-Aug-12 11:33N 46°34' W 124°17'9 8.6
2014-Aug-12 10:30N 46°25' W 124°19'8 8.5
2014-Aug-12 09:33N 46°17' W 124°20'23 0.8
2014-Aug-11 03:06N 45°56' W 124°34'21 8.4
2014-Aug-11 00:33N 46°18' W 124°34'9 9.3
2014-Aug-10 23:33N 46°27' W 124°34'10 9.4
2014-Aug-10 22:30N 46°36' W 124°31'1010.3
2014-Aug-10 21:32N 46°45' W 124°24'15 2.3
2014-Aug-10 15:06N 46°54' W 124°06'  

Dump ship's entire track history